sensor_id;sensor_type;location;lat;lon;timestamp;pressure;altitude;pressure_sealevel;temperature;humidity
50774;BME280;36745;48.544;8.918;2023-02-18T00:00:26;98333.03;;;10.98;90.08
50774;BME280;36745;48.544;8.918;2023-02-18T00:03:46;98335.88;;;10.91;90.27
50774;BME280;36745;48.544;8.918;2023-02-18T00:07:06;98332.72;;;10.92;90.22
50774;BME280;36745;48.544;8.918;2023-02-18T00:10:26;98334.59;;;10.99;89.83
50774;BME280;36745;48.544;8.918;2023-02-18T00:13:57;98333.88;;;10.95;90.15
50774;BME280;36745;48.544;8.918;2023-02-18T00:17:18;98335.00;;;10.98;89.54
50774;BME280;36745;48.544;8.918;2023-02-18T00:20:38;98325.22;;;10.93;89.83
50774;BME280;36745;48.544;8.918;2023-02-18T00:23:58;98324.84;;;10.91;90.14
50774;BME280;36745;48.544;8.918;2023-02-18T00:27:17;98316.56;;;10.91;90.55
50774;BME280;36745;48.544;8.918;2023-02-18T00:30:41;98318.13;;;10.92;90.31
50774;BME280;36745;48.544;8.918;2023-02-18T00:34:02;98316.47;;;10.98;90.23
50774;BME280;36745;48.544;8.918;2023-02-18T00:37:22;98316.22;;;10.89;90.47
50774;BME280;36745;48.544;8.918;2023-02-18T00:40:42;98314.13;;;10.97;90.56
50774;BME280;36745;48.544;8.918;2023-02-18T00:44:02;98318.50;;;10.94;90.04
50774;BME280;36745;48.544;8.918;2023-02-18T00:47:21;98313.47;;;10.89;90.18
50774;BME280;36745;48.544;8.918;2023-02-18T00:50:41;98305.66;;;10.84;90.27
50774;BME280;36745;48.544;8.918;2023-02-18T00:54:01;98299.06;;;10.78;90.33
50774;BME280;36745;48.544;8.918;2023-02-18T00:57:20;98293.16;;;10.76;90.38
50774;BME280;36745;48.544;8.918;2023-02-18T01:00:40;98295.59;;;10.74;90.10
50774;BME280;36745;48.544;8.918;2023-02-18T01:04:00;98284.66;;;10.67;90.44
50774;BME280;36745;48.544;8.918;2023-02-18T01:07:20;98295.69;;;10.67;90.37
50774;BME280;36745;48.544;8.918;2023-02-18T01:10:42;98286.53;;;10.73;89.99
50774;BME280;36745;48.544;8.918;2023-02-18T01:14:03;98288.97;;;10.68;89.90
50774;BME280;36745;48.544;8.918;2023-02-18T01:17:23;98291.72;;;10.68;89.98
50774;BME280;36745;48.544;8.918;2023-02-18T01:20:44;98290.16;;;10.67;89.71
50774;BME280;36745;48.544;8.918;2023-02-18T01:24:04;98288.22;;;10.64;89.86
50774;BME280;36745;48.544;8.918;2023-02-18T01:27:24;98294.22;;;10.59;89.94
50774;BME280;36745;48.544;8.918;2023-02-18T01:30:44;98287.63;;;10.52;89.77
50774;BME280;36745;48.544;8.918;2023-02-18T01:34:03;98280.41;;;10.35;89.81
50774;BME280;36745;48.544;8.918;2023-02-18T01:37:23;98267.09;;;10.27;90.02
50774;BME280;36745;48.544;8.918;2023-02-18T01:40:47;98260.09;;;10.22;90.00
50774;BME280;36745;48.544;8.918;2023-02-18T01:44:20;98271.22;;;10.11;90.01
50774;BME280;36745;48.544;8.918;2023-02-18T01:47:40;98280.47;;;9.98;90.56
50774;BME280;36745;48.544;8.918;2023-02-18T01:51:08;98271.44;;;9.94;90.37
50774;BME280;36745;48.544;8.918;2023-02-18T01:54:31;98259.16;;;9.72;90.52
50774;BME280;36745;48.544;8.918;2023-02-18T01:57:52;98251.25;;;9.74;90.79
50774;BME280;36745;48.544;8.918;2023-02-18T02:01:12;98261.72;;;9.55;90.79
50774;BME280;36745;48.544;8.918;2023-02-18T02:04:32;98264.19;;;9.43;91.20
50774;BME280;36745;48.544;8.918;2023-02-18T02:07:52;98266.16;;;9.42;91.69
50774;BME280;36745;48.544;8.918;2023-02-18T02:11:29;98261.91;;;9.38;91.36
50774;BME280;36745;48.544;8.918;2023-02-18T02:15:08;98271.41;;;9.30;91.46
50774;BME280;36745;48.544;8.918;2023-02-18T02:18:59;98261.63;;;9.25;91.84
50774;BME280;36745;48.544;8.918;2023-02-18T02:23:05;98245.56;;;9.20;91.83
50774;BME280;36745;48.544;8.918;2023-02-18T02:34:20;98252.34;;;9.12;93.08
50774;BME280;36745;48.544;8.918;2023-02-18T02:38:04;98247.50;;;9.23;93.19
50774;BME280;36745;48.544;8.918;2023-02-18T02:44:56;98242.09;;;9.50;93.35
50774;BME280;36745;48.544;8.918;2023-02-18T02:48:44;98245.13;;;9.59;93.30
50774;BME280;36745;48.544;8.918;2023-02-18T02:52:32;98236.28;;;9.75;93.08
50774;BME280;36745;48.544;8.918;2023-02-18T02:55:53;98233.03;;;9.83;93.08
50774;BME280;36745;48.544;8.918;2023-02-18T02:59:21;98235.66;;;9.94;93.06
50774;BME280;36745;48.544;8.918;2023-02-18T03:03:32;98239.25;;;9.91;93.00
50774;BME280;36745;48.544;8.918;2023-02-18T03:14:19;98234.84;;;9.93;93.16
50774;BME280;36745;48.544;8.918;2023-02-18T03:17:56;98233.50;;;10.08;92.75
50774;BME280;36745;48.544;8.918;2023-02-18T03:21:27;98230.13;;;9.94;93.26
50774;BME280;36745;48.544;8.918;2023-02-18T03:24:51;98225.06;;;9.92;93.33
50774;BME280;36745;48.544;8.918;2023-02-18T03:28:16;98221.88;;;9.94;93.08
50774;BME280;36745;48.544;8.918;2023-02-18T03:31:37;98209.19;;;10.00;92.72
50774;BME280;36745;48.544;8.918;2023-02-18T03:35:11;98206.19;;;9.91;93.20
50774;BME280;36745;48.544;8.918;2023-02-18T03:38:43;98205.50;;;9.83;92.88
50774;BME280;36745;48.544;8.918;2023-02-18T03:42:04;98208.69;;;9.82;92.57
50774;BME280;36745;48.544;8.918;2023-02-18T03:45:25;98201.41;;;9.64;93.04
50774;BME280;36745;48.544;8.918;2023-02-18T03:48:44;98185.44;;;9.52;93.26
50774;BME280;36745;48.544;8.918;2023-02-18T03:52:04;98186.34;;;9.42;93.20
50774;BME280;36745;48.544;8.918;2023-02-18T03:55:24;98177.44;;;9.31;93.28
50774;BME280;36745;48.544;8.918;2023-02-18T03:58:44;98179.47;;;9.27;93.67
50774;BME280;36745;48.544;8.918;2023-02-18T04:02:03;98174.03;;;9.20;93.52
50774;BME280;36745;48.544;8.918;2023-02-18T04:05:23;98175.22;;;9.19;94.08
50774;BME280;36745;48.544;8.918;2023-02-18T04:08:43;98181.56;;;9.16;94.01
50774;BME280;36745;48.544;8.918;2023-02-18T04:12:03;98181.28;;;9.07;93.78
50774;BME280;36745;48.544;8.918;2023-02-18T04:15:23;98190.44;;;8.93;93.78
50774;BME280;36745;48.544;8.918;2023-02-18T04:18:43;98192.47;;;8.85;94.25
50774;BME280;36745;48.544;8.918;2023-02-18T04:22:03;98185.06;;;8.79;94.30
50774;BME280;36745;48.544;8.918;2023-02-18T04:25:22;98185.97;;;8.65;94.77
50774;BME280;36745;48.544;8.918;2023-02-18T04:28:42;98187.97;;;8.61;94.70
50774;BME280;36745;48.544;8.918;2023-02-18T04:32:02;98182.91;;;8.56;94.95
50774;BME280;36745;48.544;8.918;2023-02-18T04:35:22;98188.47;;;8.49;95.59
50774;BME280;36745;48.544;8.918;2023-02-18T04:38:42;98186.50;;;8.50;95.49
50774;BME280;36745;48.544;8.918;2023-02-18T04:42:02;98190.47;;;8.45;95.59
50774;BME280;36745;48.544;8.918;2023-02-18T04:45:27;98195.22;;;8.41;96.18
50774;BME280;36745;48.544;8.918;2023-02-18T04:48:47;98193.66;;;8.40;96.67
50774;BME280;36745;48.544;8.918;2023-02-18T04:52:07;98194.03;;;8.42;96.07
50774;BME280;36745;48.544;8.918;2023-02-18T04:55:26;98188.19;;;8.36;96.51
50774;BME280;36745;48.544;8.918;2023-02-18T04:58:46;98189.38;;;8.32;96.61
50774;BME280;36745;48.544;8.918;2023-02-18T05:02:06;98168.53;;;8.38;96.62
50774;BME280;36745;48.544;8.918;2023-02-18T05:05:26;98175.94;;;8.45;96.64
50774;BME280;36745;48.544;8.918;2023-02-18T05:08:46;98177.97;;;8.37;96.75
50774;BME280;36745;48.544;8.918;2023-02-18T05:12:06;98173.28;;;8.34;97.51
50774;BME280;36745;48.544;8.918;2023-02-18T05:15:26;98184.22;;;8.41;97.52
50774;BME280;36745;48.544;8.918;2023-02-18T05:18:46;98169.63;;;8.48;97.17
50774;BME280;36745;48.544;8.918;2023-02-18T05:22:05;98180.19;;;8.56;97.74
50774;BME280;36745;48.544;8.918;2023-02-18T05:25:25;98182.34;;;8.75;97.26
50774;BME280;36745;48.544;8.918;2023-02-18T05:28:45;98172.13;;;8.79;97.42
50774;BME280;36745;48.544;8.918;2023-02-18T05:32:05;98169.22;;;8.94;97.71
50774;BME280;36745;48.544;8.918;2023-02-18T05:35:25;98171.22;;;8.90;97.85
50774;BME280;36745;48.544;8.918;2023-02-18T05:38:44;98168.69;;;9.06;97.58
50774;BME280;36745;48.544;8.918;2023-02-18T05:42:04;98172.41;;;9.26;98.64
50774;BME280;36745;48.544;8.918;2023-02-18T05:45:24;98174.25;;;9.36;97.88
50774;BME280;36745;48.544;8.918;2023-02-18T05:48:44;98170.97;;;9.45;97.62
50774;BME280;36745;48.544;8.918;2023-02-18T05:52:04;98176.94;;;9.40;97.43
50774;BME280;36745;48.544;8.918;2023-02-18T05:55:24;98177.78;;;9.37;97.69
50774;BME280;36745;48.544;8.918;2023-02-18T05:58:44;98167.56;;;9.37;97.23
50774;BME280;36745;48.544;8.918;2023-02-18T06:02:04;98173.06;;;9.37;97.46
50774;BME280;36745;48.544;8.918;2023-02-18T06:05:24;98166.44;;;9.31;97.40
50774;BME280;36745;48.544;8.918;2023-02-18T06:08:43;98162.84;;;9.38;97.69
50774;BME280;36745;48.544;8.918;2023-02-18T06:12:03;98162.03;;;9.37;97.81
50774;BME280;36745;48.544;8.918;2023-02-18T06:15:23;98162.84;;;9.34;97.52
50774;BME280;36745;48.544;8.918;2023-02-18T06:18:43;98173.84;;;9.34;97.76
50774;BME280;36745;48.544;8.918;2023-02-18T06:22:03;98169.97;;;9.32;97.63
50774;BME280;36745;48.544;8.918;2023-02-18T06:25:23;98171.56;;;9.29;97.86
50774;BME280;36745;48.544;8.918;2023-02-18T06:28:43;98168.34;;;9.34;97.73
50774;BME280;36745;48.544;8.918;2023-02-18T06:32:03;98160.34;;;9.47;97.78
50774;BME280;36745;48.544;8.918;2023-02-18T06:35:25;98159.47;;;9.53;97.75
50774;BME280;36745;48.544;8.918;2023-02-18T06:38:45;98160.06;;;9.68;97.52
50774;BME280;36745;48.544;8.918;2023-02-18T06:42:07;98156.19;;;9.65;97.82
50774;BME280;36745;48.544;8.918;2023-02-18T06:45:27;98159.25;;;9.71;97.57
50774;BME280;36745;48.544;8.918;2023-02-18T06:48:47;98159.84;;;9.86;97.03
50774;BME280;36745;48.544;8.918;2023-02-18T06:52:07;98155.13;;;9.83;97.11
50774;BME280;36745;48.544;8.918;2023-02-18T06:55:27;98158.59;;;9.90;96.91
50774;BME280;36745;48.544;8.918;2023-02-18T06:58:47;98154.97;;;9.97;97.03
50774;BME280;36745;48.544;8.918;2023-02-18T07:02:06;98154.19;;;9.96;96.88
50774;BME280;36745;48.544;8.918;2023-02-18T07:05:27;98165.25;;;9.93;96.72
50774;BME280;36745;48.544;8.918;2023-02-18T07:08:46;98163.56;;;9.99;96.90
50774;BME280;36745;48.544;8.918;2023-02-18T07:12:06;98160.22;;;10.15;96.21
50774;BME280;36745;48.544;8.918;2023-02-18T07:15:26;98169.63;;;10.17;95.84
50774;BME280;36745;48.544;8.918;2023-02-18T07:18:46;98167.13;;;10.26;95.90
50774;BME280;36745;48.544;8.918;2023-02-18T07:22:05;98168.69;;;10.27;95.30
50774;BME280;36745;48.544;8.918;2023-02-18T07:25:25;98170.63;;;10.30;95.06
50774;BME280;36745;48.544;8.918;2023-02-18T07:28:45;98177.16;;;10.40;94.80
50774;BME280;36745;48.544;8.918;2023-02-18T07:32:05;98182.59;;;10.43;94.41
50774;BME280;36745;48.544;8.918;2023-02-18T07:35:25;98170.88;;;10.39;94.52
50774;BME280;36745;48.544;8.918;2023-02-18T07:38:45;98175.53;;;10.42;94.25
50774;BME280;36745;48.544;8.918;2023-02-18T07:42:05;98168.59;;;10.34;93.90
50774;BME280;36745;48.544;8.918;2023-02-18T07:45:24;98160.97;;;10.42;94.16
50774;BME280;36745;48.544;8.918;2023-02-18T07:48:44;98156.50;;;10.51;94.16
50774;BME280;36745;48.544;8.918;2023-02-18T07:52:04;98152.78;;;10.62;94.09
50774;BME280;36745;48.544;8.918;2023-02-18T07:55:24;98146.78;;;10.67;93.43
50774;BME280;36745;48.544;8.918;2023-02-18T07:59:03;98150.94;;;10.75;93.13
50774;BME280;36745;48.544;8.918;2023-02-18T08:02:23;98151.81;;;10.72;93.16
50774;BME280;36745;48.544;8.918;2023-02-18T08:05:44;98153.38;;;10.73;92.34
50774;BME280;36745;48.544;8.918;2023-02-18T08:09:04;98148.69;;;10.70;92.76
50774;BME280;36745;48.544;8.918;2023-02-18T08:12:23;98144.25;;;10.76;92.26
50774;BME280;36745;48.544;8.918;2023-02-18T08:15:43;98149.75;;;10.76;92.54
50774;BME280;36745;48.544;8.918;2023-02-18T08:19:03;98150.13;;;10.78;92.08
50774;BME280;36745;48.544;8.918;2023-02-18T08:22:23;98151.69;;;10.79;91.85
50774;BME280;36745;48.544;8.918;2023-02-18T08:25:48;98142.63;;;10.78;91.69
50774;BME280;36745;48.544;8.918;2023-02-18T08:29:07;98141.91;;;10.74;90.93
50774;BME280;36745;48.544;8.918;2023-02-18T08:32:27;98150.84;;;10.82;91.14
50774;BME280;36745;48.544;8.918;2023-02-18T08:35:49;98144.13;;;10.83;90.98
50774;BME280;36745;48.544;8.918;2023-02-18T08:39:09;98142.06;;;10.87;90.15
50774;BME280;36745;48.544;8.918;2023-02-18T08:42:29;98143.16;;;10.93;90.56
50774;BME280;36745;48.544;8.918;2023-02-18T08:45:48;98150.94;;;10.98;90.21
50774;BME280;36745;48.544;8.918;2023-02-18T08:49:08;98145.78;;;11.00;90.09
50774;BME280;36745;48.544;8.918;2023-02-18T08:52:28;98150.09;;;11.01;89.96
50774;BME280;36745;48.544;8.918;2023-02-18T08:55:48;98140.59;;;11.02;89.46
50774;BME280;36745;48.544;8.918;2023-02-18T08:59:07;98144.09;;;11.06;89.73
50774;BME280;36745;48.544;8.918;2023-02-18T09:02:27;98134.94;;;11.09;89.39
50774;BME280;36745;48.544;8.918;2023-02-18T09:05:47;98139.59;;;11.12;89.74
50774;BME280;36745;48.544;8.918;2023-02-18T09:09:07;98150.94;;;11.18;89.37
50774;BME280;36745;48.544;8.918;2023-02-18T09:12:28;98143.94;;;11.13;89.25
50774;BME280;36745;48.544;8.918;2023-02-18T09:16:02;98137.91;;;11.18;88.83
50774;BME280;36745;48.544;8.918;2023-02-18T09:19:23;98130.88;;;11.17;89.13
50774;BME280;36745;48.544;8.918;2023-02-18T09:22:42;98132.41;;;11.18;88.81
50774;BME280;36745;48.544;8.918;2023-02-18T09:26:07;98120.16;;;11.19;88.67
50774;BME280;36745;48.544;8.918;2023-02-18T09:29:27;98116.56;;;11.22;88.94
50774;BME280;36745;48.544;8.918;2023-02-18T09:32:46;98111.38;;;11.24;89.13
50774;BME280;36745;48.544;8.918;2023-02-18T09:36:07;98104.59;;;11.29;88.81
50774;BME280;36745;48.544;8.918;2023-02-18T09:39:27;98098.22;;;11.32;89.00
50774;BME280;36745;48.544;8.918;2023-02-18T09:42:47;98100.41;;;11.41;88.71
50774;BME280;36745;48.544;8.918;2023-02-18T09:46:23;98103.53;;;11.43;88.08
50774;BME280;36745;48.544;8.918;2023-02-18T09:49:50;98096.81;;;11.44;87.65
50774;BME280;36745;48.544;8.918;2023-02-18T09:53:20;98083.69;;;11.48;87.78
50774;BME280;36745;48.544;8.918;2023-02-18T09:56:41;98088.34;;;11.51;87.51
50774;BME280;36745;48.544;8.918;2023-02-18T10:00:12;98077.94;;;11.58;86.74
50774;BME280;36745;48.544;8.918;2023-02-18T10:03:32;98085.81;;;11.60;86.85
50774;BME280;36745;48.544;8.918;2023-02-18T10:06:52;98086.50;;;11.64;87.16
50774;BME280;36745;48.544;8.918;2023-02-18T10:13:55;98080.09;;;11.67;86.50
50774;BME280;36745;48.544;8.918;2023-02-18T10:17:15;98100.88;;;11.75;86.58
50774;BME280;36745;48.544;8.918;2023-02-18T10:20:36;98107.72;;;11.67;85.76
50774;BME280;36745;48.544;8.918;2023-02-18T10:24:12;98103.75;;;11.68;86.29
50774;BME280;36745;48.544;8.918;2023-02-18T10:27:37;98111.63;;;11.69;86.30
50774;BME280;36745;48.544;8.918;2023-02-18T10:31:08;98107.28;;;11.68;85.59
50774;BME280;36745;48.544;8.918;2023-02-18T10:34:39;98098.38;;;11.61;85.25
50774;BME280;36745;48.544;8.918;2023-02-18T10:38:17;98084.09;;;11.66;85.61
50774;BME280;36745;48.544;8.918;2023-02-18T10:45:41;98088.88;;;11.62;84.96
50774;BME280;36745;48.544;8.918;2023-02-18T10:52:54;98117.22;;;11.66;85.15
50774;BME280;36745;48.544;8.918;2023-02-18T10:56:38;98108.38;;;11.74;84.63
50774;BME280;36745;48.544;8.918;2023-02-18T11:00:15;98107.97;;;11.76;84.17
50774;BME280;36745;48.544;8.918;2023-02-18T11:03:50;98110.22;;;11.81;84.20
50774;BME280;36745;48.544;8.918;2023-02-18T11:07:19;98105.72;;;11.87;84.39
50774;BME280;36745;48.544;8.918;2023-02-18T11:10:43;98095.53;;;11.84;83.40
50774;BME280;36745;48.544;8.918;2023-02-18T11:14:06;98080.16;;;11.83;83.53
50774;BME280;36745;48.544;8.918;2023-02-18T11:17:30;98095.38;;;11.91;83.20
50774;BME280;36745;48.544;8.918;2023-02-18T11:21:03;98075.25;;;11.91;83.29
50774;BME280;36745;48.544;8.918;2023-02-18T11:24:23;98068.44;;;11.95;83.12
50774;BME280;36745;48.544;8.918;2023-02-18T11:27:45;98054.97;;;11.97;82.97
50774;BME280;36745;48.544;8.918;2023-02-18T11:31:07;98049.44;;;11.97;82.59
50774;BME280;36745;48.544;8.918;2023-02-18T11:34:30;98048.72;;;11.93;81.68
50774;BME280;36745;48.544;8.918;2023-02-18T11:37:51;98045.97;;;11.93;82.07
50774;BME280;36745;48.544;8.918;2023-02-18T11:41:19;98048.72;;;11.93;81.71
50774;BME280;36745;48.544;8.918;2023-02-18T11:44:52;98037.88;;;11.86;81.28
50774;BME280;36745;48.544;8.918;2023-02-18T11:48:18;98023.59;;;11.88;81.32
50774;BME280;36745;48.544;8.918;2023-02-18T11:51:48;98034.75;;;11.84;81.21
50774;BME280;36745;48.544;8.918;2023-02-18T11:55:27;98020.59;;;11.82;80.84
50774;BME280;36745;48.544;8.918;2023-02-18T11:58:49;98025.63;;;11.87;80.51
50774;BME280;36745;48.544;8.918;2023-02-18T12:05:31;98001.44;;;11.91;80.33
50774;BME280;36745;48.544;8.918;2023-02-18T12:09:04;98001.94;;;12.02;79.91
50774;BME280;36745;48.544;8.918;2023-02-18T12:12:31;98004.97;;;12.08;78.70
50774;BME280;36745;48.544;8.918;2023-02-18T12:19:26;98007.19;;;12.29;78.46
50774;BME280;36745;48.544;8.918;2023-02-18T12:26:52;98004.19;;;12.36;76.00
50774;BME280;36745;48.544;8.918;2023-02-18T12:30:31;98003.00;;;12.37;75.36
50774;BME280;36745;48.544;8.918;2023-02-18T12:37:53;97986.50;;;12.34;73.06
50774;BME280;36745;48.544;8.918;2023-02-18T12:41:22;97987.53;;;12.40;72.15
50774;BME280;36745;48.544;8.918;2023-02-18T12:52:52;97978.41;;;12.55;68.64
50774;BME280;36745;48.544;8.918;2023-02-18T12:56:44;97966.38;;;12.62;68.16
50774;BME280;36745;48.544;8.918;2023-02-18T13:15:22;97958.81;;;12.91;67.18
50774;BME280;36745;48.544;8.918;2023-02-18T13:18:46;97963.00;;;12.96;66.93
50774;BME280;36745;48.544;8.918;2023-02-18T13:22:11;97954.16;;;13.01;66.69
50774;BME280;36745;48.544;8.918;2023-02-18T13:25:36;97940.03;;;13.24;66.71
50774;BME280;36745;48.544;8.918;2023-02-18T13:39:28;97946.56;;;13.68;64.05
50774;BME280;36745;48.544;8.918;2023-02-18T13:42:52;97936.91;;;13.73;64.16
50774;BME280;36745;48.544;8.918;2023-02-18T13:46:21;97937.88;;;13.79;64.08
50774;BME280;36745;48.544;8.918;2023-02-18T13:49:41;97936.53;;;13.83;64.04
50774;BME280;36745;48.544;8.918;2023-02-18T13:56:26;97928.78;;;13.78;63.82
50774;BME280;36745;48.544;8.918;2023-02-18T14:00:05;97925.03;;;13.85;63.81
50774;BME280;36745;48.544;8.918;2023-02-18T14:03:50;97926.78;;;13.92;64.01
50774;BME280;36745;48.544;8.918;2023-02-18T14:14:35;97932.34;;;13.66;63.05
50774;BME280;36745;48.544;8.918;2023-02-18T14:21:39;97928.63;;;13.35;63.51
50774;BME280;36745;48.544;8.918;2023-02-18T14:25:49;97920.56;;;13.15;62.34
50774;BME280;36745;48.544;8.918;2023-02-18T14:29:08;97927.53;;;13.20;63.38
50774;BME280;36745;48.544;8.918;2023-02-18T14:32:29;97905.59;;;13.38;63.16
50774;BME280;36745;48.544;8.918;2023-02-18T14:35:56;97906.91;;;13.46;63.59
50774;BME280;36745;48.544;8.918;2023-02-18T14:47:04;97900.94;;;13.35;62.00
50774;BME280;36745;48.544;8.918;2023-02-18T14:50:31;97910.47;;;13.34;62.70
50774;BME280;36745;48.544;8.918;2023-02-18T14:53:52;97907.38;;;13.32;62.76
50774;BME280;36745;48.544;8.918;2023-02-18T14:57:16;97895.31;;;13.26;62.76
50774;BME280;36745;48.544;8.918;2023-02-18T15:00:41;97903.28;;;13.24;62.87
50774;BME280;36745;48.544;8.918;2023-02-18T15:04:02;97888.66;;;13.23;62.87
50774;BME280;36745;48.544;8.918;2023-02-18T15:07:22;97890.41;;;13.17;63.06
50774;BME280;36745;48.544;8.918;2023-02-18T15:10:45;97895.41;;;13.10;62.68
50774;BME280;36745;48.544;8.918;2023-02-18T15:14:15;97893.72;;;12.99;62.65
50774;BME280;36745;48.544;8.918;2023-02-18T15:17:44;97888.19;;;12.99;62.95
50774;BME280;36745;48.544;8.918;2023-02-18T15:24:42;97876.91;;;12.94;63.36
50774;BME280;36745;48.544;8.918;2023-02-18T15:28:02;97893.16;;;12.92;63.32
50774;BME280;36745;48.544;8.918;2023-02-18T15:31:27;97893.28;;;12.88;63.26
50774;BME280;36745;48.544;8.918;2023-02-18T15:34:52;97880.44;;;12.82;63.19
50774;BME280;36745;48.544;8.918;2023-02-18T15:38:15;97894.94;;;12.73;63.46
50774;BME280;36745;48.544;8.918;2023-02-18T15:41:35;97895.72;;;12.74;63.68
50774;BME280;36745;48.544;8.918;2023-02-18T15:44:57;97898.91;;;12.72;63.74
50774;BME280;36745;48.544;8.918;2023-02-18T15:48:44;97905.84;;;12.64;64.11
50774;BME280;36745;48.544;8.918;2023-02-18T15:52:04;97900.53;;;12.57;64.04
50774;BME280;36745;48.544;8.918;2023-02-18T15:55:37;97890.69;;;12.56;63.84
50774;BME280;36745;48.544;8.918;2023-02-18T15:59:21;97893.66;;;12.49;64.38
50774;BME280;36745;48.544;8.918;2023-02-18T16:02:52;97917.44;;;12.46;64.70
50774;BME280;36745;48.544;8.918;2023-02-18T16:06:29;97911.75;;;12.37;64.59
50774;BME280;36745;48.544;8.918;2023-02-18T16:09:56;97913.59;;;12.28;64.62
50774;BME280;36745;48.544;8.918;2023-02-18T16:13:24;97908.38;;;12.17;64.96
50774;BME280;36745;48.544;8.918;2023-02-18T16:17:19;97899.84;;;12.11;64.97
50774;BME280;36745;48.544;8.918;2023-02-18T16:20:37;97901.63;;;12.18;65.22
50774;BME280;36745;48.544;8.918;2023-02-18T16:24:00;97904.28;;;12.22;65.10
50774;BME280;36745;48.544;8.918;2023-02-18T16:27:20;97910.59;;;12.22;65.05
50774;BME280;36745;48.544;8.918;2023-02-18T16:30:40;97912.59;;;12.22;64.86
50774;BME280;36745;48.544;8.918;2023-02-18T16:33:59;97911.25;;;12.13;65.19
50774;BME280;36745;48.544;8.918;2023-02-18T16:37:19;97916.81;;;12.26;65.31
50774;BME280;36745;48.544;8.918;2023-02-18T16:40:57;97914.81;;;12.27;65.06
50774;BME280;36745;48.544;8.918;2023-02-18T16:44:17;97920.03;;;12.25;65.25
50774;BME280;36745;48.544;8.918;2023-02-18T16:47:37;97920.22;;;12.17;65.31
50774;BME280;36745;48.544;8.918;2023-02-18T16:50:59;97916.03;;;12.26;65.56
50774;BME280;36745;48.544;8.918;2023-02-18T16:54:20;97921.66;;;12.22;65.66
50774;BME280;36745;48.544;8.918;2023-02-18T16:57:39;97923.22;;;12.23;65.76
50774;BME280;36745;48.544;8.918;2023-02-18T17:00:59;97922.63;;;12.15;65.88
50774;BME280;36745;48.544;8.918;2023-02-18T17:04:19;97928.69;;;12.10;66.13
50774;BME280;36745;48.544;8.918;2023-02-18T17:07:39;97933.88;;;12.08;66.31
50774;BME280;36745;48.544;8.918;2023-02-18T17:10:59;97938.03;;;12.00;66.55
50774;BME280;36745;48.544;8.918;2023-02-18T17:14:21;97930.63;;;11.97;66.72
50774;BME280;36745;48.544;8.918;2023-02-18T17:17:44;97930.94;;;11.99;67.02
50774;BME280;36745;48.544;8.918;2023-02-18T17:21:04;97927.88;;;11.97;67.05
50774;BME280;36745;48.544;8.918;2023-02-18T17:24:23;97944.44;;;11.97;67.18
50774;BME280;36745;48.544;8.918;2023-02-18T17:27:43;97940.13;;;11.96;67.30
50774;BME280;36745;48.544;8.918;2023-02-18T17:31:03;97943.75;;;11.93;67.54
50774;BME280;36745;48.544;8.918;2023-02-18T17:34:28;97956.88;;;11.89;67.73
50774;BME280;36745;48.544;8.918;2023-02-18T17:37:49;97947.03;;;11.88;67.92
50774;BME280;36745;48.544;8.918;2023-02-18T17:41:11;97954.47;;;11.91;67.88
50774;BME280;36745;48.544;8.918;2023-02-18T17:44:31;97957.91;;;11.95;67.96
50774;BME280;36745;48.544;8.918;2023-02-18T17:47:51;97965.34;;;11.98;67.84
50774;BME280;36745;48.544;8.918;2023-02-18T17:51:23;97956.69;;;11.96;67.89
50774;BME280;36745;48.544;8.918;2023-02-18T17:54:43;97967.31;;;11.98;67.84
50774;BME280;36745;48.544;8.918;2023-02-18T17:58:03;97970.94;;;11.95;67.82
50774;BME280;36745;48.544;8.918;2023-02-18T18:01:22;97980.00;;;11.95;67.79
50774;BME280;36745;48.544;8.918;2023-02-18T18:04:42;97976.22;;;11.89;68.18
50774;BME280;36745;48.544;8.918;2023-02-18T18:08:03;97981.84;;;11.86;68.31
50774;BME280;36745;48.544;8.918;2023-02-18T18:11:23;97983.81;;;11.85;68.39
50774;BME280;36745;48.544;8.918;2023-02-18T18:14:43;97989.09;;;11.80;68.68
50774;BME280;36745;48.544;8.918;2023-02-18T18:18:04;97990.38;;;11.75;68.62
50774;BME280;36745;48.544;8.918;2023-02-18T18:21:33;97985.34;;;11.70;68.92
50774;BME280;36745;48.544;8.918;2023-02-18T18:24:53;97987.63;;;11.75;68.86
50774;BME280;36745;48.544;8.918;2023-02-18T18:28:13;97993.97;;;11.72;68.91
50774;BME280;36745;48.544;8.918;2023-02-18T18:31:33;97992.94;;;11.66;69.26
50774;BME280;36745;48.544;8.918;2023-02-18T18:34:55;97986.38;;;11.60;69.60
50774;BME280;36745;48.544;8.918;2023-02-18T18:38:16;97991.19;;;11.56;69.88
50774;BME280;36745;48.544;8.918;2023-02-18T18:41:36;98003.03;;;11.56;70.07
50774;BME280;36745;48.544;8.918;2023-02-18T18:44:55;97993.63;;;11.54;70.39
50774;BME280;36745;48.544;8.918;2023-02-18T18:48:16;97999.16;;;11.54;70.56
50774;BME280;36745;48.544;8.918;2023-02-18T18:51:36;97981.03;;;11.53;70.88
50774;BME280;36745;48.544;8.918;2023-02-18T18:54:56;97985.34;;;11.54;70.87
50774;BME280;36745;48.544;8.918;2023-02-18T18:58:15;97996.91;;;11.49;71.35
50774;BME280;36745;48.544;8.918;2023-02-18T19:01:39;97996.53;;;11.47;71.51
50774;BME280;36745;48.544;8.918;2023-02-18T19:04:59;97991.44;;;11.45;71.69
50774;BME280;36745;48.544;8.918;2023-02-18T19:08:19;97998.63;;;11.43;71.83
50774;BME280;36745;48.544;8.918;2023-02-18T19:11:39;97998.78;;;11.35;72.31
50774;BME280;36745;48.544;8.918;2023-02-18T19:14:59;98001.53;;;11.35;72.29
50774;BME280;36745;48.544;8.918;2023-02-18T19:18:19;97990.50;;;11.35;72.53
50774;BME280;36745;48.544;8.918;2023-02-18T19:21:39;98002.03;;;11.30;72.79
50774;BME280;36745;48.544;8.918;2023-02-18T19:25:00;98001.34;;;11.26;73.36
50774;BME280;36745;48.544;8.918;2023-02-18T19:28:20;98001.06;;;11.21;73.67
50774;BME280;36745;48.544;8.918;2023-02-18T19:31:39;98000.22;;;11.24;73.58
50774;BME280;36745;48.544;8.918;2023-02-18T19:34:59;97995.47;;;11.24;73.68
50774;BME280;36745;48.544;8.918;2023-02-18T19:38:19;97999.88;;;11.22;73.71
50774;BME280;36745;48.544;8.918;2023-02-18T19:41:39;98003.56;;;11.15;74.01
50774;BME280;36745;48.544;8.918;2023-02-18T19:44:58;98006.41;;;11.12;74.39